sensor_id;sensor_type;location;lat;lon;timestamp;temperature;humidity
71668;DHT22;59504;54.806;9.640;2022-08-05T00:01:18;16.40;67.40
71668;DHT22;59504;54.806;9.640;2022-08-05T00:03:20;16.30;67.50
71668;DHT22;59504;54.806;9.640;2022-08-05T00:05:23;16.30;67.70
71668;DHT22;59504;54.806;9.640;2022-08-05T00:07:24;16.30;67.80
71668;DHT22;59504;54.806;9.640;2022-08-05T00:09:24;16.30;68.00
71668;DHT22;59504;54.806;9.640;2022-08-05T00:11:25;16.20;68.10
71668;DHT22;59504;54.806;9.640;2022-08-05T00:13:26;16.20;68.30
71668;DHT22;59504;54.806;9.640;2022-08-05T00:15:27;16.30;68.60
71668;DHT22;59504;54.806;9.640;2022-08-05T00:17:28;16.10;68.60
71668;DHT22;59504;54.806;9.640;2022-08-05T00:19:29;16.10;68.90
71668;DHT22;59504;54.806;9.640;2022-08-05T00:21:32;16.10;69.20
71668;DHT22;59504;54.806;9.640;2022-08-05T00:23:32;16.10;69.30
71668;DHT22;59504;54.806;9.640;2022-08-05T00:25:33;16.10;69.10
71668;DHT22;59504;54.806;9.640;2022-08-05T00:27:34;16.00;69.40
71668;DHT22;59504;54.806;9.640;2022-08-05T00:29:35;16.00;69.70
71668;DHT22;59504;54.806;9.640;2022-08-05T00:31:38;16.00;69.90
71668;DHT22;59504;54.806;9.640;2022-08-05T00:33:42;15.90;70.00
71668;DHT22;59504;54.806;9.640;2022-08-05T00:35:43;15.90;70.10
71668;DHT22;59504;54.806;9.640;2022-08-05T00:37:44;15.90;70.30
71668;DHT22;59504;54.806;9.640;2022-08-05T00:39:45;15.80;70.40
71668;DHT22;59504;54.806;9.640;2022-08-05T00:41:47;15.80;70.50
71668;DHT22;59504;54.806;9.640;2022-08-05T00:43:47;15.80;71.40
71668;DHT22;59504;54.806;9.640;2022-08-05T00:45:48;15.80;70.90
71668;DHT22;59504;54.806;9.640;2022-08-05T00:47:52;15.80;70.90
71668;DHT22;59504;54.806;9.640;2022-08-05T00:49:52;15.70;71.00
71668;DHT22;59504;54.806;9.640;2022-08-05T00:51:53;15.70;71.20
71668;DHT22;59504;54.806;9.640;2022-08-05T00:53:54;15.70;71.30
71668;DHT22;59504;54.806;9.640;2022-08-05T00:55:55;15.70;71.50
71668;DHT22;59504;54.806;9.640;2022-08-05T00:57:55;15.60;71.50
71668;DHT22;59504;54.806;9.640;2022-08-05T00:59:56;15.60;71.60
71668;DHT22;59504;54.806;9.640;2022-08-05T01:01:58;15.60;71.70
71668;DHT22;59504;54.806;9.640;2022-08-05T01:03:59;15.60;71.80
71668;DHT22;59504;54.806;9.640;2022-08-05T01:05:59;15.60;72.00
71668;DHT22;59504;54.806;9.640;2022-08-05T01:08:00;15.60;72.00
71668;DHT22;59504;54.806;9.640;2022-08-05T01:10:06;15.60;72.10
71668;DHT22;59504;54.806;9.640;2022-08-05T01:12:13;15.60;72.30
71668;DHT22;59504;54.806;9.640;2022-08-05T01:16:29;15.50;72.30
71668;DHT22;59504;54.806;9.640;2022-08-05T01:18:36;15.50;72.40
71668;DHT22;59504;54.806;9.640;2022-08-05T01:21:00;15.50;72.50
71668;DHT22;59504;54.806;9.640;2022-08-05T01:23:12;15.50;72.70
71668;DHT22;59504;54.806;9.640;2022-08-05T01:28:17;15.50;72.90
71668;DHT22;59504;54.806;9.640;2022-08-05T01:30:18;15.60;73.10
71668;DHT22;59504;54.806;9.640;2022-08-05T01:32:22;15.50;72.90
71668;DHT22;59504;54.806;9.640;2022-08-05T01:34:32;15.60;73.20
71668;DHT22;59504;54.806;9.640;2022-08-05T01:36:39;15.50;73.20
71668;DHT22;59504;54.806;9.640;2022-08-05T01:38:44;15.50;73.20
71668;DHT22;59504;54.806;9.640;2022-08-05T01:40:46;15.50;73.20
71668;DHT22;59504;54.806;9.640;2022-08-05T01:42:49;15.50;73.30
71668;DHT22;59504;54.806;9.640;2022-08-05T01:44:51;15.50;73.40
71668;DHT22;59504;54.806;9.640;2022-08-05T01:46:55;15.50;73.40
71668;DHT22;59504;54.806;9.640;2022-08-05T01:48:58;15.50;73.50
71668;DHT22;59504;54.806;9.640;2022-08-05T01:51:03;15.50;73.60
71668;DHT22;59504;54.806;9.640;2022-08-05T01:53:15;15.40;73.50
71668;DHT22;59504;54.806;9.640;2022-08-05T01:55:19;15.50;73.80
71668;DHT22;59504;54.806;9.640;2022-08-05T01:57:23;15.50;73.80
71668;DHT22;59504;54.806;9.640;2022-08-05T01:59:25;15.50;74.20
71668;DHT22;59504;54.806;9.640;2022-08-05T02:01:30;15.50;73.50
71668;DHT22;59504;54.806;9.640;2022-08-05T02:03:38;15.50;73.70
71668;DHT22;59504;54.806;9.640;2022-08-05T02:05:40;15.50;74.60
71668;DHT22;59504;54.806;9.640;2022-08-05T02:07:45;15.50;73.90
71668;DHT22;59504;54.806;9.640;2022-08-05T02:09:46;15.50;73.90
71668;DHT22;59504;54.806;9.640;2022-08-05T02:12:07;15.50;74.10
71668;DHT22;59504;54.806;9.640;2022-08-05T02:14:18;15.60;74.30
71668;DHT22;59504;54.806;9.640;2022-08-05T02:16:26;15.60;74.20
71668;DHT22;59504;54.806;9.640;2022-08-05T02:18:36;15.50;74.20
71668;DHT22;59504;54.806;9.640;2022-08-05T02:20:46;15.50;74.20
71668;DHT22;59504;54.806;9.640;2022-08-05T02:22:55;15.60;74.20
71668;DHT22;59504;54.806;9.640;2022-08-05T02:25:34;15.60;74.30
71668;DHT22;59504;54.806;9.640;2022-08-05T02:27:37;15.60;74.70
71668;DHT22;59504;54.806;9.640;2022-08-05T02:29:41;15.60;74.20
71668;DHT22;59504;54.806;9.640;2022-08-05T02:31:44;15.60;74.20
71668;DHT22;59504;54.806;9.640;2022-08-05T02:33:51;15.50;74.30
71668;DHT22;59504;54.806;9.640;2022-08-05T02:35:55;15.60;74.40
71668;DHT22;59504;54.806;9.640;2022-08-05T02:37:57;15.60;74.30
71668;DHT22;59504;54.806;9.640;2022-08-05T02:40:00;15.60;74.30
71668;DHT22;59504;54.806;9.640;2022-08-05T02:42:03;15.60;74.40
71668;DHT22;59504;54.806;9.640;2022-08-05T02:44:08;15.60;74.30
71668;DHT22;59504;54.806;9.640;2022-08-05T02:46:13;15.60;74.40
71668;DHT22;59504;54.806;9.640;2022-08-05T02:48:16;15.70;74.50
71668;DHT22;59504;54.806;9.640;2022-08-05T02:50:18;15.60;74.40
71668;DHT22;59504;54.806;9.640;2022-08-05T02:52:19;15.60;74.60
71668;DHT22;59504;54.806;9.640;2022-08-05T02:54:21;15.50;74.40
71668;DHT22;59504;54.806;9.640;2022-08-05T02:56:22;15.60;74.50
71668;DHT22;59504;54.806;9.640;2022-08-05T02:58:23;15.60;74.70
71668;DHT22;59504;54.806;9.640;2022-08-05T03:00:25;15.50;74.70
71668;DHT22;59504;54.806;9.640;2022-08-05T03:02:33;15.50;74.80
71668;DHT22;59504;54.806;9.640;2022-08-05T03:04:36;15.50;74.80
71668;DHT22;59504;54.806;9.640;2022-08-05T03:06:38;15.50;74.70
71668;DHT22;59504;54.806;9.640;2022-08-05T03:08:40;15.60;74.90
71668;DHT22;59504;54.806;9.640;2022-08-05T03:10:43;15.70;75.10
71668;DHT22;59504;54.806;9.640;2022-08-05T03:12:43;15.50;75.20
71668;DHT22;59504;54.806;9.640;2022-08-05T03:14:44;15.60;75.00
71668;DHT22;59504;54.806;9.640;2022-08-05T03:16:45;15.60;75.20
71668;DHT22;59504;54.806;9.640;2022-08-05T03:18:46;15.60;75.00
71668;DHT22;59504;54.806;9.640;2022-08-05T03:20:46;15.60;74.90
71668;DHT22;59504;54.806;9.640;2022-08-05T03:22:47;15.60;74.80
71668;DHT22;59504;54.806;9.640;2022-08-05T03:24:49;15.70;74.90
71668;DHT22;59504;54.806;9.640;2022-08-05T03:26:50;15.60;74.70
71668;DHT22;59504;54.806;9.640;2022-08-05T03:28:50;15.60;74.60
71668;DHT22;59504;54.806;9.640;2022-08-05T03:30:51;15.50;74.50
71668;DHT22;59504;54.806;9.640;2022-08-05T03:32:53;15.60;74.50
71668;DHT22;59504;54.806;9.640;2022-08-05T03:34:54;15.60;74.60
71668;DHT22;59504;54.806;9.640;2022-08-05T03:36:55;15.50;74.50
71668;DHT22;59504;54.806;9.640;2022-08-05T03:38:57;15.60;74.60
71668;DHT22;59504;54.806;9.640;2022-08-05T03:40:57;15.50;74.50
71668;DHT22;59504;54.806;9.640;2022-08-05T03:42:59;15.50;74.60
71668;DHT22;59504;54.806;9.640;2022-08-05T03:45:00;15.50;74.70
71668;DHT22;59504;54.806;9.640;2022-08-05T03:47:04;15.50;74.70
71668;DHT22;59504;54.806;9.640;2022-08-05T03:49:04;15.50;74.70
71668;DHT22;59504;54.806;9.640;2022-08-05T03:51:16;15.50;75.10
71668;DHT22;59504;54.806;9.640;2022-08-05T03:55:36;15.60;74.70
71668;DHT22;59504;54.806;9.640;2022-08-05T03:57:39;15.50;74.60
71668;DHT22;59504;54.806;9.640;2022-08-05T03:59:47;15.50;75.30
71668;DHT22;59504;54.806;9.640;2022-08-05T04:01:50;15.50;74.50
71668;DHT22;59504;54.806;9.640;2022-08-05T04:03:51;15.50;74.60
71668;DHT22;59504;54.806;9.640;2022-08-05T04:05:54;15.50;74.70
71668;DHT22;59504;54.806;9.640;2022-08-05T04:07:55;15.50;74.70
71668;DHT22;59504;54.806;9.640;2022-08-05T04:09:59;15.50;74.80
71668;DHT22;59504;54.806;9.640;2022-08-05T04:12:01;15.50;74.70
71668;DHT22;59504;54.806;9.640;2022-08-05T04:14:02;15.50;74.70
71668;DHT22;59504;54.806;9.640;2022-08-05T04:16:03;15.50;74.50
71668;DHT22;59504;54.806;9.640;2022-08-05T04:18:05;15.50;74.40
71668;DHT22;59504;54.806;9.640;2022-08-05T04:20:06;15.50;74.40
71668;DHT22;59504;54.806;9.640;2022-08-05T04:22:07;15.50;74.50
71668;DHT22;59504;54.806;9.640;2022-08-05T04:24:08;15.50;74.60
71668;DHT22;59504;54.806;9.640;2022-08-05T04:26:09;15.50;74.70
71668;DHT22;59504;54.806;9.640;2022-08-05T04:28:09;15.50;74.70
71668;DHT22;59504;54.806;9.640;2022-08-05T04:30:10;15.50;74.80
71668;DHT22;59504;54.806;9.640;2022-08-05T04:32:11;15.50;74.70
71668;DHT22;59504;54.806;9.640;2022-08-05T04:34:12;15.50;74.70
71668;DHT22;59504;54.806;9.640;2022-08-05T04:36:12;15.50;74.70
71668;DHT22;59504;54.806;9.640;2022-08-05T04:38:14;15.50;74.60
71668;DHT22;59504;54.806;9.640;2022-08-05T04:40:15;15.50;74.60
71668;DHT22;59504;54.806;9.640;2022-08-05T04:42:16;15.50;74.60
71668;DHT22;59504;54.806;9.640;2022-08-05T04:44:16;15.50;74.60
71668;DHT22;59504;54.806;9.640;2022-08-05T04:46:17;15.50;74.50
71668;DHT22;59504;54.806;9.640;2022-08-05T04:48:18;15.50;74.50
71668;DHT22;59504;54.806;9.640;2022-08-05T04:50:18;15.50;74.30
71668;DHT22;59504;54.806;9.640;2022-08-05T04:52:19;15.50;74.20
71668;DHT22;59504;54.806;9.640;2022-08-05T04:54:20;15.50;74.30
71668;DHT22;59504;54.806;9.640;2022-08-05T04:56:21;15.50;74.20
71668;DHT22;59504;54.806;9.640;2022-08-05T04:58:22;15.50;74.10
71668;DHT22;59504;54.806;9.640;2022-08-05T05:00:22;15.50;74.20
71668;DHT22;59504;54.806;9.640;2022-08-05T05:02:23;15.50;74.20
71668;DHT22;59504;54.806;9.640;2022-08-05T05:04:24;15.50;74.20
71668;DHT22;59504;54.806;9.640;2022-08-05T05:06:24;15.50;74.30
71668;DHT22;59504;54.806;9.640;2022-08-05T05:08:25;15.50;74.30
71668;DHT22;59504;54.806;9.640;2022-08-05T05:10:26;15.50;74.30
71668;DHT22;59504;54.806;9.640;2022-08-05T05:12:26;15.40;74.20
71668;DHT22;59504;54.806;9.640;2022-08-05T05:14:27;15.60;74.40
71668;DHT22;59504;54.806;9.640;2022-08-05T05:16:28;15.50;74.40
71668;DHT22;59504;54.806;9.640;2022-08-05T05:18:29;15.50;74.60
71668;DHT22;59504;54.806;9.640;2022-08-05T05:20:30;15.50;74.70
71668;DHT22;59504;54.806;9.640;2022-08-05T05:22:31;15.50;75.00
71668;DHT22;59504;54.806;9.640;2022-08-05T05:24:32;15.50;75.10
71668;DHT22;59504;54.806;9.640;2022-08-05T05:26:32;15.50;75.10
71668;DHT22;59504;54.806;9.640;2022-08-05T05:28:33;15.60;75.20
71668;DHT22;59504;54.806;9.640;2022-08-05T05:30:34;15.60;75.10
71668;DHT22;59504;54.806;9.640;2022-08-05T05:32:34;15.60;75.00
71668;DHT22;59504;54.806;9.640;2022-08-05T05:34:35;15.60;75.10
71668;DHT22;59504;54.806;9.640;2022-08-05T05:36:36;15.60;75.30
71668;DHT22;59504;54.806;9.640;2022-08-05T05:38:36;15.60;75.30
71668;DHT22;59504;54.806;9.640;2022-08-05T05:40:37;15.70;75.30
71668;DHT22;59504;54.806;9.640;2022-08-05T05:42:37;15.70;76.00
71668;DHT22;59504;54.806;9.640;2022-08-05T05:44:38;15.70;75.20
71668;DHT22;59504;54.806;9.640;2022-08-05T05:46:39;15.70;75.20
71668;DHT22;59504;54.806;9.640;2022-08-05T05:48:39;15.80;75.30
71668;DHT22;59504;54.806;9.640;2022-08-05T05:50:41;15.80;75.10
71668;DHT22;59504;54.806;9.640;2022-08-05T05:52:42;15.80;75.10
71668;DHT22;59504;54.806;9.640;2022-08-05T05:54:43;15.90;75.10
71668;DHT22;59504;54.806;9.640;2022-08-05T05:56:43;15.90;74.80
71668;DHT22;59504;54.806;9.640;2022-08-05T05:58:44;15.90;74.40
71668;DHT22;59504;54.806;9.640;2022-08-05T06:00:47;16.00;74.10
71668;DHT22;59504;54.806;9.640;2022-08-05T06:02:47;16.00;73.70
71668;DHT22;59504;54.806;9.640;2022-08-05T06:04:48;16.00;73.40
71668;DHT22;59504;54.806;9.640;2022-08-05T06:06:48;16.00;73.30
71668;DHT22;59504;54.806;9.640;2022-08-05T06:08:49;16.10;73.40
71668;DHT22;59504;54.806;9.640;2022-08-05T06:10:50;16.10;73.50
71668;DHT22;59504;54.806;9.640;2022-08-05T06:12:50;16.10;73.70
71668;DHT22;59504;54.806;9.640;2022-08-05T06:14:51;16.20;73.60
71668;DHT22;59504;54.806;9.640;2022-08-05T06:16:51;16.20;74.20
71668;DHT22;59504;54.806;9.640;2022-08-05T06:18:52;16.30;73.30
71668;DHT22;59504;54.806;9.640;2022-08-05T06:20:53;16.30;73.30
71668;DHT22;59504;54.806;9.640;2022-08-05T06:22:53;16.40;73.20
71668;DHT22;59504;54.806;9.640;2022-08-05T06:24:55;16.50;72.90
71668;DHT22;59504;54.806;9.640;2022-08-05T06:26:56;16.50;72.40
71668;DHT22;59504;54.806;9.640;2022-08-05T06:28:56;16.60;72.10
71668;DHT22;59504;54.806;9.640;2022-08-05T06:30:57;16.70;71.60
71668;DHT22;59504;54.806;9.640;2022-08-05T06:32:58;16.70;70.70
71668;DHT22;59504;54.806;9.640;2022-08-05T06:34:58;16.80;70.40
71668;DHT22;59504;54.806;9.640;2022-08-05T06:36:59;16.80;70.10
71668;DHT22;59504;54.806;9.640;2022-08-05T06:39:00;16.80;69.70
71668;DHT22;59504;54.806;9.640;2022-08-05T06:41:00;16.90;69.20
71668;DHT22;59504;54.806;9.640;2022-08-05T06:43:01;17.00;69.00
71668;DHT22;59504;54.806;9.640;2022-08-05T06:45:02;17.00;68.70
71668;DHT22;59504;54.806;9.640;2022-08-05T06:47:03;17.00;68.50
71668;DHT22;59504;54.806;9.640;2022-08-05T06:49:04;17.10;69.00
71668;DHT22;59504;54.806;9.640;2022-08-05T06:51:05;17.10;68.00
71668;DHT22;59504;54.806;9.640;2022-08-05T06:53:05;17.10;67.60
71668;DHT22;59504;54.806;9.640;2022-08-05T06:55:06;17.10;68.10
71668;DHT22;59504;54.806;9.640;2022-08-05T06:57:07;17.10;66.80
71668;DHT22;59504;54.806;9.640;2022-08-05T06:59:08;17.20;66.60
71668;DHT22;59504;54.806;9.640;2022-08-05T07:01:09;17.20;66.50
71668;DHT22;59504;54.806;9.640;2022-08-05T07:03:10;17.20;66.20
71668;DHT22;59504;54.806;9.640;2022-08-05T07:05:11;17.20;66.00
71668;DHT22;59504;54.806;9.640;2022-08-05T07:07:12;17.20;65.60
71668;DHT22;59504;54.806;9.640;2022-08-05T07:09:12;17.10;65.50
71668;DHT22;59504;54.806;9.640;2022-08-05T07:11:14;17.10;65.30
71668;DHT22;59504;54.806;9.640;2022-08-05T07:13:14;17.20;65.20
71668;DHT22;59504;54.806;9.640;2022-08-05T07:15:34;17.20;65.30
71668;DHT22;59504;54.806;9.640;2022-08-05T07:17:56;17.20;65.10
71668;DHT22;59504;54.806;9.640;2022-08-05T07:19:56;17.20;65.40
71668;DHT22;59504;54.806;9.640;2022-08-05T07:21:57;17.10;65.30
71668;DHT22;59504;54.806;9.640;2022-08-05T07:23:58;17.20;65.40
71668;DHT22;59504;54.806;9.640;2022-08-05T07:26:01;17.20;65.40
71668;DHT22;59504;54.806;9.640;2022-08-05T07:28:02;17.20;65.40
71668;DHT22;59504;54.806;9.640;2022-08-05T07:30:07;17.30;65.30
71668;DHT22;59504;54.806;9.640;2022-08-05T07:32:11;17.20;65.00
71668;DHT22;59504;54.806;9.640;2022-08-05T07:34:12;17.20;64.80
71668;DHT22;59504;54.806;9.640;2022-08-05T07:36:16;17.20;64.60
71668;DHT22;59504;54.806;9.640;2022-08-05T07:38:26;17.30;64.20
71668;DHT22;59504;54.806;9.640;2022-08-05T07:40:27;17.30;64.00
71668;DHT22;59504;54.806;9.640;2022-08-05T07:42:27;17.30;63.80
71668;DHT22;59504;54.806;9.640;2022-08-05T07:44:28;17.30;63.50
71668;DHT22;59504;54.806;9.640;2022-08-05T07:46:32;17.30;63.50
71668;DHT22;59504;54.806;9.640;2022-08-05T07:48:33;17.30;63.40
71668;DHT22;59504;54.806;9.640;2022-08-05T07:50:36;17.30;63.20
71668;DHT22;59504;54.806;9.640;2022-08-05T07:52:38;17.40;62.60
71668;DHT22;59504;54.806;9.640;2022-08-05T07:54:42;17.40;62.70
71668;DHT22;59504;54.806;9.640;2022-08-05T07:56:49;17.40;62.60
71668;DHT22;59504;54.806;9.640;2022-08-05T07:58:50;17.40;63.20
71668;DHT22;59504;54.806;9.640;2022-08-05T08:00:50;17.40;63.20
71668;DHT22;59504;54.806;9.640;2022-08-05T08:02:54;17.40;62.40
71668;DHT22;59504;54.806;9.640;2022-08-05T08:11:33;17.40;61.60
71668;DHT22;59504;54.806;9.640;2022-08-05T08:13:34;17.50;61.70
71668;DHT22;59504;54.806;9.640;2022-08-05T08:15:35;17.40;61.50
71668;DHT22;59504;54.806;9.640;2022-08-05T08:17:36;17.40;61.50
71668;DHT22;59504;54.806;9.640;2022-08-05T08:22:42;17.50;61.10
71668;DHT22;59504;54.806;9.640;2022-08-05T08:25:06;17.40;60.90
71668;DHT22;59504;54.806;9.640;2022-08-05T08:28:05;17.50;61.00
71668;DHT22;59504;54.806;9.640;2022-08-05T08:32:49;17.50;60.80
71668;DHT22;59504;54.806;9.640;2022-08-05T08:35:33;17.50;60.80
71668;DHT22;59504;54.806;9.640;2022-08-05T08:37:41;17.60;60.30
71668;DHT22;59504;54.806;9.640;2022-08-05T08:39:41;17.60;60.10
71668;DHT22;59504;54.806;9.640;2022-08-05T08:41:43;17.60;60.10
71668;DHT22;59504;54.806;9.640;2022-08-05T08:43:45;17.60;60.10
71668;DHT22;59504;54.806;9.640;2022-08-05T08:45:48;17.60;60.30
71668;DHT22;59504;54.806;9.640;2022-08-05T08:47:50;17.60;60.20
71668;DHT22;59504;54.806;9.640;2022-08-05T08:49:53;17.60;60.10
71668;DHT22;59504;54.806;9.640;2022-08-05T08:52:00;17.60;60.00
71668;DHT22;59504;54.806;9.640;2022-08-05T08:54:03;17.60;59.90
71668;DHT22;59504;54.806;9.640;2022-08-05T08:56:04;17.60;59.80
71668;DHT22;59504;54.806;9.640;2022-08-05T08:58:06;17.70;59.90
71668;DHT22;59504;54.806;9.640;2022-08-05T09:00:09;17.70;59.80
71668;DHT22;59504;54.806;9.640;2022-08-05T09:02:11;17.70;59.50
71668;DHT22;59504;54.806;9.640;2022-08-05T09:04:12;17.70;59.50
71668;DHT22;59504;54.806;9.640;2022-08-05T09:06:13;17.80;59.30
71668;DHT22;59504;54.806;9.640;2022-08-05T09:08:14;17.80;59.20
71668;DHT22;59504;54.806;9.640;2022-08-05T09:10:16;17.80;59.10
71668;DHT22;59504;54.806;9.640;2022-08-05T09:12:16;17.90;58.80
71668;DHT22;59504;54.806;9.640;2022-08-05T09:14:23;17.90;58.80
71668;DHT22;59504;54.806;9.640;2022-08-05T09:16:24;18.00;58.90
71668;DHT22;59504;54.806;9.640;2022-08-05T09:18:28;18.00;58.60
71668;DHT22;59504;54.806;9.640;2022-08-05T09:20:32;18.00;58.10
71668;DHT22;59504;54.806;9.640;2022-08-05T09:25:02;18.10;57.00
71668;DHT22;59504;54.806;9.640;2022-08-05T09:29:43;18.00;56.80
71668;DHT22;59504;54.806;9.640;2022-08-05T09:32:06;18.10;57.50
71668;DHT22;59504;54.806;9.640;2022-08-05T09:34:07;18.00;57.30
71668;DHT22;59504;54.806;9.640;2022-08-05T09:36:11;18.10;57.60
71668;DHT22;59504;54.806;9.640;2022-08-05T09:38:11;18.10;57.60
71668;DHT22;59504;54.806;9.640;2022-08-05T09:40:39;18.10;57.60
71668;DHT22;59504;54.806;9.640;2022-08-05T09:42:43;18.10;57.20
71668;DHT22;59504;54.806;9.640;2022-08-05T09:44:46;18.10;57.40
71668;DHT22;59504;54.806;9.640;2022-08-05T09:46:47;18.00;57.30
71668;DHT22;59504;54.806;9.640;2022-08-05T09:48:48;18.10;57.40
71668;DHT22;59504;54.806;9.640;2022-08-05T09:50:51;18.20;57.90
71668;DHT22;59504;54.806;9.640;2022-08-05T09:52:56;18.20;58.00
71668;DHT22;59504;54.806;9.640;2022-08-05T09:55:08;18.20;57.90
71668;DHT22;59504;54.806;9.640;2022-08-05T09:57:09;18.20;57.60
71668;DHT22;59504;54.806;9.640;2022-08-05T09:59:12;18.20;57.50
71668;DHT22;59504;54.806;9.640;2022-08-05T10:01:13;18.20;57.80
71668;DHT22;59504;54.806;9.640;2022-08-05T10:03:17;18.20;57.00
71668;DHT22;59504;54.806;9.640;2022-08-05T10:05:18;18.30;57.20
71668;DHT22;59504;54.806;9.640;2022-08-05T10:07:19;18.30;57.20
71668;DHT22;59504;54.806;9.640;2022-08-05T10:09:20;18.30;57.40
71668;DHT22;59504;54.806;9.640;2022-08-05T10:11:34;18.30;57.40
71668;DHT22;59504;54.806;9.640;2022-08-05T10:13:48;18.40;57.40
71668;DHT22;59504;54.806;9.640;2022-08-05T10:15:57;18.40;57.40
71668;DHT22;59504;54.806;9.640;2022-08-05T10:18:13;18.50;56.80
71668;DHT22;59504;54.806;9.640;2022-08-05T10:20:14;18.50;56.80
71668;DHT22;59504;54.806;9.640;2022-08-05T10:22:19;18.60;56.70
71668;DHT22;59504;54.806;9.640;2022-08-05T10:24:22;18.60;56.60
71668;DHT22;59504;54.806;9.640;2022-08-05T10:26:23;18.70;56.90
71668;DHT22;59504;54.806;9.640;2022-08-05T10:28:24;18.70;57.00
71668;DHT22;59504;54.806;9.640;2022-08-05T10:30:28;18.80;57.10
71668;DHT22;59504;54.806;9.640;2022-08-05T10:32:36;18.90;56.80
71668;DHT22;59504;54.806;9.640;2022-08-05T10:34:47;19.00;56.40
71668;DHT22;59504;54.806;9.640;2022-08-05T10:36:48;19.00;55.10
71668;DHT22;59504;54.806;9.640;2022-08-05T10:38:51;19.10;54.80
71668;DHT22;59504;54.806;9.640;2022-08-05T10:45:41;19.20;54.40
71668;DHT22;59504;54.806;9.640;2022-08-05T10:48:33;19.20;54.80
71668;DHT22;59504;54.806;9.640;2022-08-05T10:51:27;19.20;53.30
71668;DHT22;59504;54.806;9.640;2022-08-05T10:57:30;19.20;54.00
71668;DHT22;59504;54.806;9.640;2022-08-05T10:59:49;19.30;53.70
71668;DHT22;59504;54.806;9.640;2022-08-05T11:02:11;19.40;53.80
71668;DHT22;59504;54.806;9.640;2022-08-05T11:04:14;19.30;53.80
71668;DHT22;59504;54.806;9.640;2022-08-05T11:06:24;19.40;54.00
71668;DHT22;59504;54.806;9.640;2022-08-05T11:13:52;19.50;53.20
71668;DHT22;59504;54.806;9.640;2022-08-05T11:23:52;19.70;54.40
71668;DHT22;59504;54.806;9.640;2022-08-05T11:26:05;19.80;53.70
71668;DHT22;59504;54.806;9.640;2022-08-05T11:30:12;20.00;53.70
71668;DHT22;59504;54.806;9.640;2022-08-05T11:34:39;20.20;52.50
71668;DHT22;59504;54.806;9.640;2022-08-05T11:36:44;20.20;51.10
71668;DHT22;59504;54.806;9.640;2022-08-05T11:41:02;20.40;50.80
71668;DHT22;59504;54.806;9.640;2022-08-05T11:43:06;20.40;50.20
71668;DHT22;59504;54.806;9.640;2022-08-05T11:45:08;20.50;50.40
71668;DHT22;59504;54.806;9.640;2022-08-05T11:47:08;20.50;50.50
71668;DHT22;59504;54.806;9.640;2022-08-05T11:49:14;20.60;50.60
71668;DHT22;59504;54.806;9.640;2022-08-05T11:51:15;20.60;49.90
71668;DHT22;59504;54.806;9.640;2022-08-05T11:53:16;20.70;49.70
71668;DHT22;59504;54.806;9.640;2022-08-05T11:55:18;20.70;49.00
71668;DHT22;59504;54.806;9.640;2022-08-05T11:57:19;20.70;48.80
71668;DHT22;59504;54.806;9.640;2022-08-05T12:12:05;21.00;47.80
71668;DHT22;59504;54.806;9.640;2022-08-05T12:14:12;21.00;47.30
71668;DHT22;59504;54.806;9.640;2022-08-05T12:16:42;21.00;48.10
71668;DHT22;59504;54.806;9.640;2022-08-05T12:18:43;21.00;48.10
71668;DHT22;59504;54.806;9.640;2022-08-05T12:21:18;21.00;47.90
71668;DHT22;59504;54.806;9.640;2022-08-05T12:23:19;21.10;48.10
71668;DHT22;59504;54.806;9.640;2022-08-05T12:25:20;21.20;48.20
71668;DHT22;59504;54.806;9.640;2022-08-05T12:27:30;21.20;48.10
71668;DHT22;59504;54.806;9.640;2022-08-05T12:29:31;21.30;47.60
71668;DHT22;59504;54.806;9.640;2022-08-05T12:31:33;21.30;47.20
71668;DHT22;59504;54.806;9.640;2022-08-05T12:33:46;21.40;47.10
71668;DHT22;59504;54.806;9.640;2022-08-05T12:36:12;21.40;46.60
71668;DHT22;59504;54.806;9.640;2022-08-05T12:38:18;21.40;43.60
71668;DHT22;59504;54.806;9.640;2022-08-05T12:40:19;21.40;44.80
71668;DHT22;59504;54.806;9.640;2022-08-05T12:42:29;21.50;45.10
71668;DHT22;59504;54.806;9.640;2022-08-05T12:44:43;21.50;45.60
71668;DHT22;59504;54.806;9.640;2022-08-05T12:46:51;21.60;46.20
71668;DHT22;59504;54.806;9.640;2022-08-05T12:51:12;21.70;46.30
71668;DHT22;59504;54.806;9.640;2022-08-05T12:53:15;21.80;45.40
71668;DHT22;59504;54.806;9.640;2022-08-05T12:55:21;21.90;45.60
71668;DHT22;59504;54.806;9.640;2022-08-05T12:57:22;21.90;45.40
71668;DHT22;59504;54.806;9.640;2022-08-05T12:59:31;22.00;45.40
71668;DHT22;59504;54.806;9.640;2022-08-05T13:01:32;22.00;44.90
71668;DHT22;59504;54.806;9.640;2022-08-05T13:03:36;22.10;45.10
71668;DHT22;59504;54.806;9.640;2022-08-05T13:05:37;22.10;44.20
71668;DHT22;59504;54.806;9.640;2022-08-05T13:07:39;22.10;44.00
71668;DHT22;59504;54.806;9.640;2022-08-05T13:09:42;22.10;44.10
71668;DHT22;59504;54.806;9.640;2022-08-05T13:11:47;22.20;44.10
71668;DHT22;59504;54.806;9.640;2022-08-05T13:13:50;22.30;44.40
71668;DHT22;59504;54.806;9.640;2022-08-05T13:15:51;22.30;43.70
71668;DHT22;59504;54.806;9.640;2022-08-05T13:17:56;22.30;43.60
71668;DHT22;59504;54.806;9.640;2022-08-05T13:21:58;22.30;43.40
71668;DHT22;59504;54.806;9.640;2022-08-05T13:23:58;22.30;43.00
71668;DHT22;59504;54.806;9.640;2022-08-05T13:25:59;22.30;42.90
71668;DHT22;59504;54.806;9.640;2022-08-05T13:28:01;22.30;42.80
71668;DHT22;59504;54.806;9.640;2022-08-05T13:30:05;22.30;42.60
71668;DHT22;59504;54.806;9.640;2022-08-05T13:32:06;22.20;42.40
71668;DHT22;59504;54.806;9.640;2022-08-05T13:34:08;22.20;42.20
71668;DHT22;59504;54.806;9.640;2022-08-05T13:36:11;22.10;42.40
71668;DHT22;59504;54.806;9.640;2022-08-05T13:38:15;22.00;42.40
71668;DHT22;59504;54.806;9.640;2022-08-05T13:40:16;22.10;42.30
71668;DHT22;59504;54.806;9.640;2022-08-05T13:42:19;22.00;42.40
71668;DHT22;59504;54.806;9.640;2022-08-05T13:44:23;21.90;42.30
71668;DHT22;59504;54.806;9.640;2022-08-05T13:46:30;21.90;42.30
71668;DHT22;59504;54.806;9.640;2022-08-05T13:48:34;21.90;42.70
71668;DHT22;59504;54.806;9.640;2022-08-05T13:50:35;21.90;42.80
71668;DHT22;59504;54.806;9.640;2022-08-05T13:52:36;21.90;42.70
71668;DHT22;59504;54.806;9.640;2022-08-05T13:54:46;21.80;42.90
71668;DHT22;59504;54.806;9.640;2022-08-05T13:56:46;21.80;43.10
71668;DHT22;59504;54.806;9.640;2022-08-05T13:58:47;21.80;42.70
71668;DHT22;59504;54.806;9.640;2022-08-05T14:00:48;21.80;42.40
71668;DHT22;59504;54.806;9.640;2022-08-05T14:02:49;21.80;42.30
71668;DHT22;59504;54.806;9.640;2022-08-05T14:04:49;21.80;42.20
71668;DHT22;59504;54.806;9.640;2022-08-05T14:07:09;21.80;42.20
71668;DHT22;59504;54.806;9.640;2022-08-05T14:09:13;21.80;42.30
71668;DHT22;59504;54.806;9.640;2022-08-05T14:11:16;21.70;42.10
71668;DHT22;59504;54.806;9.640;2022-08-05T14:13:17;21.70;42.20